sensor_id;sensor_type;location;lat;lon;timestamp;pressure;altitude;pressure_sealevel;temperature;humidity
64675;BME280;51090;51.512;11.332;2022-11-23T00:03:47;97909.03;;;5.81;100.00
64675;BME280;51090;51.512;11.332;2022-11-23T00:06:14;97905.81;;;5.86;100.00
64675;BME280;51090;51.512;11.332;2022-11-23T00:08:41;97898.50;;;5.81;100.00
64675;BME280;51090;51.512;11.332;2022-11-23T00:11:07;97887.34;;;5.79;100.00
64675;BME280;51090;51.512;11.332;2022-11-23T00:13:33;97909.94;;;5.95;100.00
64675;BME280;51090;51.512;11.332;2022-11-23T00:16:04;97908.16;;;6.02;100.00
64675;BME280;51090;51.512;11.332;2022-11-23T00:18:30;97896.13;;;5.93;100.00
64675;BME280;51090;51.512;11.332;2022-11-23T00:20:56;97920.53;;;6.02;100.00
64675;BME280;51090;51.512;11.332;2022-11-23T00:23:21;97918.88;;;6.01;100.00
64675;BME280;51090;51.512;11.332;2022-11-23T00:25:47;97920.91;;;5.99;100.00
64675;BME280;51090;51.512;11.332;2022-11-23T00:28:13;97913.59;;;5.94;100.00
64675;BME280;51090;51.512;11.332;2022-11-23T00:30:38;97909.25;;;5.86;100.00
64675;BME280;51090;51.512;11.332;2022-11-23T00:33:04;97915.31;;;5.87;100.00
64675;BME280;51090;51.512;11.332;2022-11-23T00:35:30;97902.13;;;5.80;100.00
64675;BME280;51090;51.512;11.332;2022-11-23T00:37:56;97911.09;;;5.86;100.00
64675;BME280;51090;51.512;11.332;2022-11-23T00:40:21;97910.31;;;5.92;100.00
64675;BME280;51090;51.512;11.332;2022-11-23T00:42:47;97921.09;;;5.97;100.00
64675;BME280;51090;51.512;11.332;2022-11-23T00:45:13;97918.53;;;6.04;100.00
64675;BME280;51090;51.512;11.332;2022-11-23T00:47:39;97910.00;;;6.02;100.00
64675;BME280;51090;51.512;11.332;2022-11-23T00:50:05;97920.31;;;6.03;100.00
64675;BME280;51090;51.512;11.332;2022-11-23T00:52:30;97918.06;;;6.00;100.00
64675;BME280;51090;51.512;11.332;2022-11-23T00:54:56;97930.00;;;5.96;100.00
64675;BME280;51090;51.512;11.332;2022-11-23T00:57:22;97922.19;;;5.88;100.00
64675;BME280;51090;51.512;11.332;2022-11-23T00:59:47;97934.75;;;5.86;100.00
64675;BME280;51090;51.512;11.332;2022-11-23T01:02:13;97934.50;;;5.81;100.00
64675;BME280;51090;51.512;11.332;2022-11-23T01:04:39;97931.44;;;5.77;100.00
64675;BME280;51090;51.512;11.332;2022-11-23T01:07:05;97938.09;;;5.73;100.00
64675;BME280;51090;51.512;11.332;2022-11-23T01:09:30;97934.06;;;5.77;100.00
64675;BME280;51090;51.512;11.332;2022-11-23T01:11:56;97928.88;;;5.84;100.00
64675;BME280;51090;51.512;11.332;2022-11-23T01:14:22;97937.41;;;5.93;100.00
64675;BME280;51090;51.512;11.332;2022-11-23T01:16:49;97923.47;;;5.92;100.00
64675;BME280;51090;51.512;11.332;2022-11-23T01:19:18;97932.25;;;5.99;100.00
64675;BME280;51090;51.512;11.332;2022-11-23T01:21:44;97916.47;;;5.99;100.00
64675;BME280;51090;51.512;11.332;2022-11-23T01:24:21;97934.97;;;6.13;100.00
64675;BME280;51090;51.512;11.332;2022-11-23T01:26:54;97928.09;;;6.18;100.00
64675;BME280;51090;51.512;11.332;2022-11-23T01:29:20;97939.25;;;6.20;100.00
64675;BME280;51090;51.512;11.332;2022-11-23T01:31:46;97936.38;;;6.15;100.00
64675;BME280;51090;51.512;11.332;2022-11-23T01:34:13;97937.66;;;6.19;100.00
64675;BME280;51090;51.512;11.332;2022-11-23T01:36:40;97934.19;;;6.19;100.00
64675;BME280;51090;51.512;11.332;2022-11-23T01:39:06;97931.34;;;6.20;100.00
64675;BME280;51090;51.512;11.332;2022-11-23T01:41:38;97945.56;;;6.26;100.00
64675;BME280;51090;51.512;11.332;2022-11-23T01:44:31;97940.53;;;6.31;100.00
64675;BME280;51090;51.512;11.332;2022-11-23T01:47:02;97947.44;;;6.32;100.00
64675;BME280;51090;51.512;11.332;2022-11-23T01:49:37;97951.28;;;6.29;100.00
64675;BME280;51090;51.512;11.332;2022-11-23T01:52:12;97949.06;;;6.33;100.00
64675;BME280;51090;51.512;11.332;2022-11-23T01:54:47;97957.13;;;6.31;100.00
64675;BME280;51090;51.512;11.332;2022-11-23T01:57:32;97951.69;;;6.33;100.00
64675;BME280;51090;51.512;11.332;2022-11-23T01:59:59;97949.22;;;6.31;100.00
64675;BME280;51090;51.512;11.332;2022-11-23T02:02:27;97961.41;;;6.32;100.00
64675;BME280;51090;51.512;11.332;2022-11-23T02:04:56;97947.00;;;6.28;100.00
64675;BME280;51090;51.512;11.332;2022-11-23T02:07:25;97958.53;;;6.27;100.00
64675;BME280;51090;51.512;11.332;2022-11-23T02:09:51;97960.59;;;6.32;100.00
64675;BME280;51090;51.512;11.332;2022-11-23T02:12:17;97959.16;;;6.29;100.00
64675;BME280;51090;51.512;11.332;2022-11-23T02:14:43;97950.19;;;6.24;100.00
64675;BME280;51090;51.512;11.332;2022-11-23T02:17:10;97951.44;;;6.28;100.00
64675;BME280;51090;51.512;11.332;2022-11-23T02:20:07;97955.13;;;6.33;100.00
64675;BME280;51090;51.512;11.332;2022-11-23T02:28:16;97952.94;;;6.37;100.00
64675;BME280;51090;51.512;11.332;2022-11-23T02:30:45;97961.47;;;6.46;100.00
64675;BME280;51090;51.512;11.332;2022-11-23T02:33:11;97956.84;;;6.48;100.00
64675;BME280;51090;51.512;11.332;2022-11-23T02:35:58;97961.72;;;6.58;100.00
64675;BME280;51090;51.512;11.332;2022-11-23T02:38:30;97960.53;;;6.60;100.00
64675;BME280;51090;51.512;11.332;2022-11-23T02:40:57;97952.78;;;6.52;100.00
64675;BME280;51090;51.512;11.332;2022-11-23T02:43:23;97961.13;;;6.56;100.00
64675;BME280;51090;51.512;11.332;2022-11-23T02:45:56;97968.25;;;6.62;100.00
64675;BME280;51090;51.512;11.332;2022-11-23T02:48:23;97967.84;;;6.65;100.00
64675;BME280;51090;51.512;11.332;2022-11-23T02:50:49;97970.09;;;6.68;100.00
64675;BME280;51090;51.512;11.332;2022-11-23T02:53:15;97969.09;;;6.75;100.00
64675;BME280;51090;51.512;11.332;2022-11-23T02:55:40;97970.34;;;6.80;100.00
64675;BME280;51090;51.512;11.332;2022-11-23T02:58:06;97971.19;;;6.87;100.00
64675;BME280;51090;51.512;11.332;2022-11-23T03:00:33;97972.81;;;6.88;100.00
64675;BME280;51090;51.512;11.332;2022-11-23T03:03:00;97975.84;;;6.85;100.00
64675;BME280;51090;51.512;11.332;2022-11-23T03:05:26;97973.16;;;6.78;100.00
64675;BME280;51090;51.512;11.332;2022-11-23T03:07:52;97977.63;;;6.71;100.00
64675;BME280;51090;51.512;11.332;2022-11-23T03:10:19;97981.47;;;6.68;100.00
64675;BME280;51090;51.512;11.332;2022-11-23T03:12:44;97988.72;;;6.66;100.00
64675;BME280;51090;51.512;11.332;2022-11-23T03:15:10;97983.22;;;6.61;100.00
64675;BME280;51090;51.512;11.332;2022-11-23T03:17:36;97995.81;;;6.66;100.00
64675;BME280;51090;51.512;11.332;2022-11-23T03:20:02;97982.78;;;6.58;100.00
64675;BME280;51090;51.512;11.332;2022-11-23T03:22:28;97988.03;;;6.51;100.00
64675;BME280;51090;51.512;11.332;2022-11-23T03:24:54;97980.09;;;6.44;100.00
64675;BME280;51090;51.512;11.332;2022-11-23T03:27:21;97992.91;;;6.47;100.00
64675;BME280;51090;51.512;11.332;2022-11-23T03:29:46;97986.78;;;6.47;100.00
64675;BME280;51090;51.512;11.332;2022-11-23T03:32:12;97977.84;;;6.41;100.00
64675;BME280;51090;51.512;11.332;2022-11-23T03:34:38;97980.31;;;6.49;100.00
64675;BME280;51090;51.512;11.332;2022-11-23T03:37:04;97978.09;;;6.46;100.00
64675;BME280;51090;51.512;11.332;2022-11-23T03:39:30;97989.44;;;6.47;100.00
64675;BME280;51090;51.512;11.332;2022-11-23T03:41:55;97987.00;;;6.45;100.00
64675;BME280;51090;51.512;11.332;2022-11-23T03:44:21;97981.91;;;6.44;100.00
64675;BME280;51090;51.512;11.332;2022-11-23T03:46:47;97971.78;;;6.41;100.00
64675;BME280;51090;51.512;11.332;2022-11-23T03:49:15;97992.91;;;6.54;100.00
64675;BME280;51090;51.512;11.332;2022-11-23T03:51:40;97983.19;;;6.54;100.00
64675;BME280;51090;51.512;11.332;2022-11-23T03:54:06;97984.84;;;6.56;100.00
64675;BME280;51090;51.512;11.332;2022-11-23T03:56:32;97982.38;;;6.54;100.00
64675;BME280;51090;51.512;11.332;2022-11-23T03:58:58;97960.84;;;6.44;100.00
64675;BME280;51090;51.512;11.332;2022-11-23T04:01:23;97979.75;;;6.54;100.00
64675;BME280;51090;51.512;11.332;2022-11-23T04:03:50;97979.34;;;6.50;100.00
64675;BME280;51090;51.512;11.332;2022-11-23T04:06:16;97974.06;;;6.50;100.00
64675;BME280;51090;51.512;11.332;2022-11-23T04:08:42;97981.16;;;6.50;100.00
64675;BME280;51090;51.512;11.332;2022-11-23T04:11:08;97980.31;;;6.49;100.00
64675;BME280;51090;51.512;11.332;2022-11-23T04:13:33;97983.16;;;6.48;100.00
64675;BME280;51090;51.512;11.332;2022-11-23T04:15:59;97980.47;;;6.41;100.00
64675;BME280;51090;51.512;11.332;2022-11-23T04:18:25;97989.41;;;6.40;100.00
64675;BME280;51090;51.512;11.332;2022-11-23T04:20:50;97978.19;;;6.31;100.00
64675;BME280;51090;51.512;11.332;2022-11-23T04:23:16;97979.03;;;6.32;100.00
64675;BME280;51090;51.512;11.332;2022-11-23T04:25:42;97969.50;;;6.31;100.00
64675;BME280;51090;51.512;11.332;2022-11-23T04:28:08;97975.56;;;6.31;100.00
64675;BME280;51090;51.512;11.332;2022-11-23T04:30:33;97987.75;;;6.32;100.00
64675;BME280;51090;51.512;11.332;2022-11-23T04:32:59;97984.28;;;6.32;100.00
64675;BME280;51090;51.512;11.332;2022-11-23T04:35:25;97978.81;;;6.33;100.00
64675;BME280;51090;51.512;11.332;2022-11-23T04:37:50;97982.72;;;6.38;100.00
64675;BME280;51090;51.512;11.332;2022-11-23T04:40:16;97979.84;;;6.39;100.00
64675;BME280;51090;51.512;11.332;2022-11-23T04:42:42;97987.56;;;6.41;100.00
64675;BME280;51090;51.512;11.332;2022-11-23T04:45:08;97990.03;;;6.42;100.00
64675;BME280;51090;51.512;11.332;2022-11-23T04:47:35;97983.34;;;6.40;100.00
64675;BME280;51090;51.512;11.332;2022-11-23T04:50:01;97989.19;;;6.42;100.00
64675;BME280;51090;51.512;11.332;2022-11-23T04:52:27;97974.59;;;6.39;100.00
64675;BME280;51090;51.512;11.332;2022-11-23T04:54:52;97979.50;;;6.42;100.00
64675;BME280;51090;51.512;11.332;2022-11-23T04:57:18;97972.59;;;6.41;100.00
64675;BME280;51090;51.512;11.332;2022-11-23T04:59:44;97972.44;;;6.49;100.00
64675;BME280;51090;51.512;11.332;2022-11-23T05:02:10;97968.22;;;6.55;100.00
64675;BME280;51090;51.512;11.332;2022-11-23T05:04:35;97978.16;;;6.60;100.00
64675;BME280;51090;51.512;11.332;2022-11-23T05:07:01;97968.25;;;6.62;100.00
64675;BME280;51090;51.512;11.332;2022-11-23T05:09:27;97966.00;;;6.59;100.00
64675;BME280;51090;51.512;11.332;2022-11-23T05:11:52;97965.59;;;6.55;100.00
64675;BME280;51090;51.512;11.332;2022-11-23T05:14:18;97973.69;;;6.60;100.00
64675;BME280;51090;51.512;11.332;2022-11-23T05:16:44;97970.47;;;6.58;100.00
64675;BME280;51090;51.512;11.332;2022-11-23T05:19:10;97966.41;;;6.56;100.00
64675;BME280;51090;51.512;11.332;2022-11-23T05:21:35;97969.03;;;6.56;100.00
64675;BME280;51090;51.512;11.332;2022-11-23T05:24:02;97974.31;;;6.56;100.00
64675;BME280;51090;51.512;11.332;2022-11-23T05:26:28;97971.03;;;6.53;100.00
64675;BME280;51090;51.512;11.332;2022-11-23T05:28:54;97969.78;;;6.49;100.00
64675;BME280;51090;51.512;11.332;2022-11-23T05:31:20;97964.53;;;6.49;100.00
64675;BME280;51090;51.512;11.332;2022-11-23T05:33:45;97976.47;;;6.45;100.00
64675;BME280;51090;51.512;11.332;2022-11-23T05:36:11;97968.53;;;6.39;100.00
64675;BME280;51090;51.512;11.332;2022-11-23T05:38:39;97974.41;;;6.41;100.00
64675;BME280;51090;51.512;11.332;2022-11-23T05:41:06;97973.78;;;6.39;100.00
64675;BME280;51090;51.512;11.332;2022-11-23T05:43:32;97974.19;;;6.36;100.00
64675;BME280;51090;51.512;11.332;2022-11-23T05:45:59;97980.25;;;6.36;100.00
64675;BME280;51090;51.512;11.332;2022-11-23T05:48:25;97980.03;;;6.31;100.00
64675;BME280;51090;51.512;11.332;2022-11-23T05:50:51;97981.44;;;6.27;100.00
64675;BME280;51090;51.512;11.332;2022-11-23T05:53:17;97988.06;;;6.23;100.00
64675;BME280;51090;51.512;11.332;2022-11-23T05:55:42;97987.22;;;6.16;100.00
64675;BME280;51090;51.512;11.332;2022-11-23T05:58:08;97978.66;;;6.07;100.00
64675;BME280;51090;51.512;11.332;2022-11-23T06:00:34;97980.41;;;6.00;100.00
64675;BME280;51090;51.512;11.332;2022-11-23T06:03:00;97986.50;;;6.00;100.00
64675;BME280;51090;51.512;11.332;2022-11-23T06:05:28;97985.50;;;6.01;100.00
64675;BME280;51090;51.512;11.332;2022-11-23T06:07:54;97994.63;;;6.05;100.00
64675;BME280;51090;51.512;11.332;2022-11-23T06:10:20;97991.00;;;6.06;100.00
64675;BME280;51090;51.512;11.332;2022-11-23T06:12:45;98004.03;;;6.15;100.00
64675;BME280;51090;51.512;11.332;2022-11-23T06:15:12;98000.38;;;6.16;100.00
64675;BME280;51090;51.512;11.332;2022-11-23T06:17:39;97991.09;;;6.20;100.00
64675;BME280;51090;51.512;11.332;2022-11-23T06:20:06;97995.59;;;6.26;100.00
64675;BME280;51090;51.512;11.332;2022-11-23T06:22:33;97997.22;;;6.27;100.00
64675;BME280;51090;51.512;11.332;2022-11-23T06:25:00;97999.81;;;6.20;100.00
64675;BME280;51090;51.512;11.332;2022-11-23T06:27:26;98001.41;;;6.21;100.00
64675;BME280;51090;51.512;11.332;2022-11-23T06:29:52;97999.81;;;6.20;100.00
64675;BME280;51090;51.512;11.332;2022-11-23T06:32:18;98005.88;;;6.21;100.00
64675;BME280;51090;51.512;11.332;2022-11-23T06:34:44;98000.44;;;6.22;100.00
64675;BME280;51090;51.512;11.332;2022-11-23T06:37:10;97992.72;;;6.21;100.00
64675;BME280;51090;51.512;11.332;2022-11-23T06:39:36;98015.25;;;6.30;100.00
64675;BME280;51090;51.512;11.332;2022-11-23T06:42:02;98020.53;;;6.30;100.00
64675;BME280;51090;51.512;11.332;2022-11-23T06:44:28;98020.31;;;6.31;100.00
64675;BME280;51090;51.512;11.332;2022-11-23T06:46:57;98017.91;;;6.37;100.00
64675;BME280;51090;51.512;11.332;2022-11-23T06:49:23;98025.25;;;6.41;100.00
64675;BME280;51090;51.512;11.332;2022-11-23T06:51:50;98032.56;;;6.46;100.00
64675;BME280;51090;51.512;11.332;2022-11-23T06:54:16;98027.13;;;6.47;100.00
64675;BME280;51090;51.512;11.332;2022-11-23T06:56:42;98023.72;;;6.53;100.00
64675;BME280;51090;51.512;11.332;2022-11-23T06:59:08;98029.22;;;6.59;100.00
64675;BME280;51090;51.512;11.332;2022-11-23T07:01:34;98024.75;;;6.59;100.00
64675;BME280;51090;51.512;11.332;2022-11-23T07:04:00;98018.88;;;6.57;100.00
64675;BME280;51090;51.512;11.332;2022-11-23T07:06:26;98035.09;;;6.61;100.00
64675;BME280;51090;51.512;11.332;2022-11-23T07:08:54;98029.00;;;6.60;100.00
64675;BME280;51090;51.512;11.332;2022-11-23T07:11:20;98031.84;;;6.59;100.00
64675;BME280;51090;51.512;11.332;2022-11-23T07:13:46;98035.13;;;6.67;100.00
64675;BME280;51090;51.512;11.332;2022-11-23T07:16:14;98041.25;;;6.74;100.00
64675;BME280;51090;51.512;11.332;2022-11-23T07:18:42;98042.50;;;6.79;100.00
64675;BME280;51090;51.512;11.332;2022-11-23T07:21:08;98036.84;;;6.82;100.00
64675;BME280;51090;51.512;11.332;2022-11-23T07:23:34;98038.06;;;6.86;100.00
64675;BME280;51090;51.512;11.332;2022-11-23T07:26:06;98051.09;;;6.94;100.00
64675;BME280;51090;51.512;11.332;2022-11-23T07:28:33;98039.72;;;6.93;100.00
64675;BME280;51090;51.512;11.332;2022-11-23T07:30:59;98045.84;;;7.01;100.00
64675;BME280;51090;51.512;11.332;2022-11-23T07:33:26;98030.59;;;6.96;100.00
64675;BME280;51090;51.512;11.332;2022-11-23T07:35:52;98045.53;;;7.17;100.00
64675;BME280;51090;51.512;11.332;2022-11-23T07:38:18;98057.50;;;7.26;100.00
64675;BME280;51090;51.512;11.332;2022-11-23T07:40:47;98066.69;;;7.44;100.00
64675;BME280;51090;51.512;11.332;2022-11-23T07:43:13;98065.53;;;7.53;100.00
64675;BME280;51090;51.512;11.332;2022-11-23T07:45:39;98060.47;;;7.58;100.00
64675;BME280;51090;51.512;11.332;2022-11-23T07:48:07;98058.63;;;7.65;100.00
64675;BME280;51090;51.512;11.332;2022-11-23T07:50:36;98063.13;;;7.71;100.00
64675;BME280;51090;51.512;11.332;2022-11-23T07:53:03;98071.22;;;7.70;100.00
64675;BME280;51090;51.512;11.332;2022-11-23T07:55:29;98070.84;;;7.66;100.00
64675;BME280;51090;51.512;11.332;2022-11-23T07:57:56;98080.97;;;7.69;100.00
64675;BME280;51090;51.512;11.332;2022-11-23T08:00:24;98064.94;;;7.64;100.00
64675;BME280;51090;51.512;11.332;2022-11-23T08:02:50;98069.41;;;7.63;100.00
64675;BME280;51090;51.512;11.332;2022-11-23T08:05:16;98075.31;;;7.66;100.00
64675;BME280;51090;51.512;11.332;2022-11-23T08:07:43;98077.53;;;7.75;100.00
64675;BME280;51090;51.512;11.332;2022-11-23T08:10:11;98084.25;;;7.91;100.00
64675;BME280;51090;51.512;11.332;2022-11-23T08:12:37;98086.94;;;8.04;100.00
64675;BME280;51090;51.512;11.332;2022-11-23T08:15:05;98085.91;;;8.19;100.00
64675;BME280;51090;51.512;11.332;2022-11-23T08:17:31;98079.00;;;8.24;100.00
64675;BME280;51090;51.512;11.332;2022-11-23T08:19:57;98081.03;;;8.29;100.00
64675;BME280;51090;51.512;11.332;2022-11-23T08:22:23;98080.06;;;8.30;100.00
64675;BME280;51090;51.512;11.332;2022-11-23T08:24:48;98073.75;;;8.38;100.00
64675;BME280;51090;51.512;11.332;2022-11-23T08:27:14;98077.00;;;8.46;100.00
64675;BME280;51090;51.512;11.332;2022-11-23T08:29:40;98080.66;;;8.59;100.00
64675;BME280;51090;51.512;11.332;2022-11-23T08:32:06;98076.38;;;8.64;100.00
64675;BME280;51090;51.512;11.332;2022-11-23T08:34:32;98090.00;;;8.75;100.00
64675;BME280;51090;51.512;11.332;2022-11-23T08:36:57;98077.16;;;8.85;100.00
64675;BME280;51090;51.512;11.332;2022-11-23T08:39:23;98088.50;;;8.99;100.00
64675;BME280;51090;51.512;11.332;2022-11-23T08:41:49;98085.06;;;9.05;100.00
64675;BME280;51090;51.512;11.332;2022-11-23T08:44:14;98084.19;;;9.18;100.00
64675;BME280;51090;51.512;11.332;2022-11-23T08:46:40;98088.22;;;9.27;100.00
64675;BME280;51090;51.512;11.332;2022-11-23T08:49:06;98089.00;;;9.34;100.00
64675;BME280;51090;51.512;11.332;2022-11-23T08:51:32;98086.34;;;9.41;100.00
64675;BME280;51090;51.512;11.332;2022-11-23T08:53:58;98074.56;;;9.36;100.00
64675;BME280;51090;51.512;11.332;2022-11-23T08:56:24;98089.34;;;9.51;100.00
64675;BME280;51090;51.512;11.332;2022-11-23T08:58:50;98086.06;;;9.55;100.00
64675;BME280;51090;51.512;11.332;2022-11-23T09:01:16;98091.75;;;9.59;100.00
64675;BME280;51090;51.512;11.332;2022-11-23T09:03:43;98085.41;;;9.67;100.00
64675;BME280;51090;51.512;11.332;2022-11-23T09:06:10;98084.94;;;9.76;100.00
64675;BME280;51090;51.512;11.332;2022-11-23T09:08:36;98086.38;;;9.79;100.00
64675;BME280;51090;51.512;11.332;2022-11-23T09:11:07;98094.41;;;9.91;100.00
64675;BME280;51090;51.512;11.332;2022-11-23T09:13:35;98088.31;;;9.90;100.00
64675;BME280;51090;51.512;11.332;2022-11-23T09:16:04;98090.50;;;10.00;100.00
64675;BME280;51090;51.512;11.332;2022-11-23T09:18:30;98086.63;;;10.02;100.00
64675;BME280;51090;51.512;11.332;2022-11-23T09:20:57;98103.47;;;10.08;100.00
64675;BME280;51090;51.512;11.332;2022-11-23T09:23:23;98093.50;;;10.10;100.00
64675;BME280;51090;51.512;11.332;2022-11-23T09:25:51;98107.28;;;10.19;100.00
64675;BME280;51090;51.512;11.332;2022-11-23T09:28:17;98092.16;;;10.26;100.00
64675;BME280;51090;51.512;11.332;2022-11-23T09:30:49;98096.84;;;10.31;100.00
64675;BME280;51090;51.512;11.332;2022-11-23T09:33:15;98102.31;;;10.36;100.00
64675;BME280;51090;51.512;11.332;2022-11-23T09:35:40;98097.97;;;10.41;100.00
64675;BME280;51090;51.512;11.332;2022-11-23T09:38:06;98097.69;;;10.50;100.00
64675;BME280;51090;51.512;11.332;2022-11-23T09:40:37;98095.66;;;10.52;100.00
64675;BME280;51090;51.512;11.332;2022-11-23T09:49:15;98100.97;;;10.70;100.00
64675;BME280;51090;51.512;11.332;2022-11-23T09:51:42;98094.88;;;10.70;100.00
64675;BME280;51090;51.512;11.332;2022-11-23T09:54:25;98086.84;;;10.76;100.00
64675;BME280;51090;51.512;11.332;2022-11-23T09:56:54;98084.78;;;10.78;100.00
64675;BME280;51090;51.512;11.332;2022-11-23T09:59:40;98094.09;;;10.87;100.00
64675;BME280;51090;51.512;11.332;2022-11-23T10:02:24;98089.44;;;10.83;100.00
64675;BME280;51090;51.512;11.332;2022-11-23T10:04:52;98088.03;;;10.80;100.00
64675;BME280;51090;51.512;11.332;2022-11-23T10:10:59;98088.13;;;10.92;100.00
64675;BME280;51090;51.512;11.332;2022-11-23T10:13:37;98096.91;;;10.93;100.00
64675;BME280;51090;51.512;11.332;2022-11-23T10:16:47;98085.03;;;10.95;100.00
64675;BME280;51090;51.512;11.332;2022-11-23T10:22:59;98085.94;;;11.07;100.00
64675;BME280;51090;51.512;11.332;2022-11-23T10:25:32;98082.44;;;11.07;100.00
64675;BME280;51090;51.512;11.332;2022-11-23T10:28:14;98089.75;;;11.11;100.00
64675;BME280;51090;51.512;11.332;2022-11-23T10:30:41;98078.47;;;11.16;100.00
64675;BME280;51090;51.512;11.332;2022-11-23T10:33:37;98078.69;;;11.15;100.00
64675;BME280;51090;51.512;11.332;2022-11-23T10:36:08;98064.31;;;11.04;100.00
64675;BME280;51090;51.512;11.332;2022-11-23T10:38:35;98069.88;;;11.02;100.00
64675;BME280;51090;51.512;11.332;2022-11-23T10:41:08;98075.97;;;11.03;100.00
64675;BME280;51090;51.512;11.332;2022-11-23T10:43:48;98061.38;;;11.12;100.00
64675;BME280;51090;51.512;11.332;2022-11-23T10:49:25;98061.94;;;11.51;100.00
64675;BME280;51090;51.512;11.332;2022-11-23T10:52:04;98059.31;;;11.63;100.00
64675;BME280;51090;51.512;11.332;2022-11-23T10:54:52;98060.50;;;11.67;100.00
64675;BME280;51090;51.512;11.332;2022-11-23T10:58:03;98063.16;;;11.67;100.00
64675;BME280;51090;51.512;11.332;2022-11-23T11:02:49;98054.41;;;11.48;100.00
64675;BME280;51090;51.512;11.332;2022-11-23T11:05:32;98054.31;;;11.54;100.00
64675;BME280;51090;51.512;11.332;2022-11-23T11:08:07;98055.94;;;11.55;100.00
64675;BME280;51090;51.512;11.332;2022-11-23T11:18:59;98046.09;;;11.74;100.00
64675;BME280;51090;51.512;11.332;2022-11-23T11:21:35;98048.19;;;11.84;100.00
64675;BME280;51090;51.512;11.332;2022-11-23T11:24:17;98035.88;;;11.90;100.00
64675;BME280;51090;51.512;11.332;2022-11-23T11:26:57;98043.84;;;11.90;100.00
64675;BME280;51090;51.512;11.332;2022-11-23T11:29:53;98047.06;;;11.92;100.00
64675;BME280;51090;51.512;11.332;2022-11-23T11:32:52;98036.16;;;11.82;100.00
64675;BME280;51090;51.512;11.332;2022-11-23T11:35:31;98043.75;;;11.66;100.00
64675;BME280;51090;51.512;11.332;2022-11-23T11:40:51;98046.72;;;11.28;100.00
64675;BME280;51090;51.512;11.332;2022-11-23T11:45:55;98043.09;;;11.04;100.00
64675;BME280;51090;51.512;11.332;2022-11-23T11:48:53;98053.66;;;10.92;100.00
64675;BME280;51090;51.512;11.332;2022-11-23T11:51:47;98050.09;;;10.80;100.00
64675;BME280;51090;51.512;11.332;2022-11-23T11:54:39;98046.88;;;10.78;100.00
64675;BME280;51090;51.512;11.332;2022-11-23T11:57:23;98042.22;;;10.92;100.00
64675;BME280;51090;51.512;11.332;2022-11-23T11:59:55;98044.94;;;11.03;100.00
64675;BME280;51090;51.512;11.332;2022-11-23T12:02:41;98049.88;;;11.18;100.00
64675;BME280;51090;51.512;11.332;2022-11-23T12:05:24;98053.91;;;11.39;100.00
64675;BME280;51090;51.512;11.332;2022-11-23T12:08:23;98057.31;;;11.58;100.00
64675;BME280;51090;51.512;11.332;2022-11-23T12:10:57;98046.56;;;11.71;100.00
64675;BME280;51090;51.512;11.332;2022-11-23T12:13:37;98047.16;;;11.85;100.00
64675;BME280;51090;51.512;11.332;2022-11-23T12:16:30;98045.13;;;11.99;100.00
64675;BME280;51090;51.512;11.332;2022-11-23T12:25:19;98036.88;;;12.42;100.00
64675;BME280;51090;51.512;11.332;2022-11-23T12:37:48;98053.03;;;12.29;100.00
64675;BME280;51090;51.512;11.332;2022-11-23T12:40:38;98042.00;;;12.02;100.00
64675;BME280;51090;51.512;11.332;2022-11-23T12:43:23;98035.94;;;11.71;100.00
64675;BME280;51090;51.512;11.332;2022-11-23T12:58:26;98023.78;;;10.60;100.00
64675;BME280;51090;51.512;11.332;2022-11-23T13:09:38;98018.19;;;10.50;100.00
64675;BME280;51090;51.512;11.332;2022-11-23T13:12:50;98021.63;;;10.50;100.00
64675;BME280;51090;51.512;11.332;2022-11-23T13:21:38;98022.16;;;10.40;100.00
64675;BME280;51090;51.512;11.332;2022-11-23T13:24:26;98024.38;;;10.43;100.00
64675;BME280;51090;51.512;11.332;2022-11-23T13:27:29;98022.09;;;10.47;100.00
64675;BME280;51090;51.512;11.332;2022-11-23T13:29:57;98019.91;;;10.37;100.00
64675;BME280;51090;51.512;11.332;2022-11-23T13:40:34;98014.94;;;10.48;100.00
64675;BME280;51090;51.512;11.332;2022-11-23T13:43:13;98019.78;;;10.51;100.00
64675;BME280;51090;51.512;11.332;2022-11-23T13:45:40;98026.50;;;10.53;100.00
64675;BME280;51090;51.512;11.332;2022-11-23T13:53:24;98022.19;;;10.77;100.00
64675;BME280;51090;51.512;11.332;2022-11-23T14:04:37;98022.34;;;11.01;100.00
64675;BME280;51090;51.512;11.332;2022-11-23T14:10:04;98023.09;;;10.89;100.00
64675;BME280;51090;51.512;11.332;2022-11-23T14:15:28;98019.25;;;10.67;100.00
64675;BME280;51090;51.512;11.332;2022-11-23T14:21:13;98022.69;;;10.49;100.00
64675;BME280;51090;51.512;11.332;2022-11-23T14:27:04;98012.06;;;10.24;100.00
64675;BME280;51090;51.512;11.332;2022-11-23T14:30:03;98020.28;;;10.16;100.00
64675;BME280;51090;51.512;11.332;2022-11-23T14:41:53;98022.50;;;9.69;100.00
64675;BME280;51090;51.512;11.332;2022-11-23T14:44:26;98015.63;;;9.54;100.00
64675;BME280;51090;51.512;11.332;2022-11-23T14:47:06;98019.53;;;9.45;100.00
64675;BME280;51090;51.512;11.332;2022-11-23T14:49:33;98014.13;;;9.33;100.00
64675;BME280;51090;51.512;11.332;2022-11-23T14:51:59;98010.31;;;9.23;100.00
64675;BME280;51090;51.512;11.332;2022-11-23T14:54:26;97999.41;;;9.06;100.00
64675;BME280;51090;51.512;11.332;2022-11-23T14:56:57;98012.00;;;9.04;100.00
64675;BME280;51090;51.512;11.332;2022-11-23T14:59:33;98011.06;;;8.91;100.00
64675;BME280;51090;51.512;11.332;2022-11-23T15:02:14;98014.34;;;8.80;100.00
64675;BME280;51090;51.512;11.332;2022-11-23T15:05:03;98006.66;;;8.65;100.00
64675;BME280;51090;51.512;11.332;2022-11-23T15:08:19;98015.03;;;8.56;100.00
64675;BME280;51090;51.512;11.332;2022-11-23T15:11:13;98010.59;;;8.43;100.00